Spring Valley, Arizona
Current Conditions -  °F | °C
As of 11:15 AM on Wednesday 26 Nov 2014 (Local Time) from KPAN Reporting Station
Clear Clear  
Wind Chill: 63°   Ceiling: Unl
Heat Index: 63°   Visibility: 10mi
Dew Point: 18°   Wind: 6mph
Humidity: 18%   Direction: 190°S
Pressure: 30.4"   Gusts: NA
Location:  34.2564°N, 111.978°W
Report Text: KPAN 261815Z AUTO 19005KT 10SM CLR 17/M08 A3040 RMK AO2
Loading
Personal Weather Stations






























Interactive Weather Map New forecast layout! Learn more

10-Day Weather Forecast

Advertisements
Track Severe Weather on mobile